Time;durP1;ratioP1;P1;durP2;ratioP2;P2;SDS_P1;SDS_P2;PMS_P1;PMS_P2;Temp;Humidity;BMP_temperature;BMP_pressure;BME280_temperature;BME280_humidity;BME280_pressure;Samples;Min_cycle;Max_cycle;Signal;HPM_P1;HPM_P2
2023/08/26 00:01:40;;;;;;;8.85;5.03;;;;;;;15.61;60.26;100722.13;4995317;28;20029;-75
2023/08/26 00:04:06;;;;;;;9.20;4.72;;;;;;;15.54;60.45;100722.50;4978326;28;20053;-77
2023/08/26 00:06:33;;;;;;;5.65;4.63;;;;;;;15.49;60.25;100716.69;4981024;28;20030;-75
2023/08/26 00:08:58;;;;;;;8.38;5.30;;;;;;;15.51;60.42;100720.06;4959325;28;20053;-76
2023/08/26 00:11:24;;;;;;;6.90;3.95;;;;;;;15.52;60.78;100705.94;4978617;28;20037;-76
2023/08/26 00:13:49;;;;;;;6.18;4.68;;;;;;;15.58;60.36;100700.28;4994359;28;20117;-77
2023/08/26 00:16:15;;;;;;;3.65;2.88;;;;;;;15.62;60.57;100694.81;4982904;28;20053;-75
2023/08/26 00:18:40;;;;;;;5.55;4.40;;;;;;;15.60;60.60;100679.13;4992456;28;20108;-76
2023/08/26 00:21:06;;;;;;;5.38;3.33;;;;;;;15.64;60.36;100685.03;4961701;28;20038;-75
2023/08/26 00:23:32;;;;;;;5.63;3.72;;;;;;;15.70;60.25;100688.09;4978253;28;20064;-76
2023/08/26 00:25:57;;;;;;;5.25;4.22;;;;;;;15.73;60.36;100687.09;4979369;28;20032;-77
2023/08/26 00:28:23;;;;;;;6.03;5.30;;;;;;;15.67;60.07;100688.31;4980085;28;20054;-76
2023/08/26 00:30:59;;;;;;;7.88;4.40;;;;;;;15.66;60.14;100691.91;4981250;28;20030;-75
2023/08/26 00:33:26;;;;;;;5.07;4.38;;;;;;;15.67;60.30;100684.84;4981909;28;20539;-75
2023/08/26 00:35:52;;;;;;;7.60;3.88;;;;;;;15.70;60.15;100687.28;4978404;28;20504;-76
2023/08/26 00:38:17;;;;;;;7.00;5.18;;;;;;;15.52;60.43;100687.50;4976349;28;20057;-75
2023/08/26 00:40:43;;;;;;;5.10;4.07;;;;;;;15.56;60.36;100683.75;4960538;28;20091;-75
2023/08/26 00:43:09;;;;;;;6.93;5.20;;;;;;;15.56;60.24;100680.25;4996749;28;20046;-76
2023/08/26 00:45:44;;;;;;;5.50;3.38;;;;;;;15.63;60.28;100678.91;4973774;28;20042;-76
2023/08/26 00:48:12;;;;;;;7.68;4.93;;;;;;;15.49;60.63;100685.06;4980770;28;20606;-76
2023/08/26 00:50:39;;;;;;;13.38;6.28;;;;;;;15.50;60.74;100686.75;4972389;28;20058;-77
2023/08/26 00:53:06;;;;;;;9.63;5.70;;;;;;;15.58;60.70;100679.22;4977986;28;20112;-76
2023/08/26 00:55:32;;;;;;;5.25;4.15;;;;;;;15.65;60.55;100674.41;4990804;28;20033;-75
2023/08/26 00:57:58;;;;;;;12.45;6.97;;;;;;;15.63;60.34;100671.00;4980606;28;20051;-76
2023/08/26 01:00:25;;;;;;;14.95;7.18;;;;;;;15.72;60.74;100669.56;4981322;28;20583;-75
2023/08/26 01:02:50;;;;;;;21.35;8.20;;;;;;;15.70;60.35;100674.09;4977848;28;20045;-76
2023/08/26 01:05:16;;;;;;;18.40;8.27;;;;;;;15.65;60.56;100676.19;4981375;28;20665;-76
2023/08/26 01:07:43;;;;;;;24.40;8.80;;;;;;;15.63;60.37;100676.28;4981568;28;20541;-75
2023/08/26 01:10:09;;;;;;;18.75;8.65;;;;;;;15.65;60.66;100676.19;4978816;28;20042;-76
2023/08/26 01:12:57;;;;;;;24.23;8.65;;;;;;;15.62;60.53;100673.75;4978238;28;20439;-74
2023/08/26 01:15:25;;;;;;;28.23;9.50;;;;;;;15.62;60.29;100679.00;4959214;28;20079;-76
2023/08/26 01:17:51;;;;;;;21.10;9.23;;;;;;;15.51;60.72;100682.34;4978157;28;20042;-76
2023/08/26 01:20:17;;;;;;;20.20;9.00;;;;;;;15.59;60.76;100674.78;4990434;28;20037;-76
2023/08/26 01:22:45;;;;;;;25.63;9.18;;;;;;;15.46;61.05;100679.16;4978975;28;20052;-76
2023/08/26 01:25:13;;;;;;;23.63;9.68;;;;;;;15.45;61.37;100683.56;4992061;28;20906;-77
2023/08/26 01:27:38;;;;;;;18.95;9.45;;;;;;;15.45;61.23;100680.94;4975462;28;20108;-77
2023/08/26 01:30:06;;;;;;;25.88;8.70;;;;;;;15.53;61.14;100678.69;4979565;28;20117;-77
2023/08/26 01:32:41;;;;;;;19.45;8.52;;;;;;;15.41;61.37;100682.06;4982263;28;20037;-75
2023/08/26 01:35:12;;;;;;;20.80;7.80;;;;;;;15.51;61.15;100688.47;4984716;28;20028;-76
2023/08/26 01:37:40;;;;;;;19.13;8.45;;;;;;;15.48;61.24;100688.66;4981861;28;20733;-76
2023/08/26 01:40:08;;;;;;;22.85;7.80;;;;;;;15.39;61.17;100686.59;4980730;28;20045;-75
2023/08/26 01:42:36;;;;;;;24.08;8.27;;;;;;;15.42;61.30;100681.16;4997981;28;20046;-75
2023/08/26 01:45:05;;;;;;;28.38;8.65;;;;;;;15.37;61.47;100678.81;4983592;28;20045;-78
2023/08/26 01:47:31;;;;;;;23.15;8.38;;;;;;;15.21;61.78;100682.47;4997244;28;20034;-77
2023/08/26 01:49:56;;;;;;;23.88;7.75;;;;;;;15.03;62.25;100681.81;4959325;28;20187;-76
2023/08/26 01:52:22;;;;;;;26.65;7.97;;;;;;;14.97;62.78;100680.44;5001385;28;20693;-77
2023/08/26 01:54:49;;;;;;;19.92;8.38;;;;;;;14.79;63.08;100686.81;4983903;28;20034;-75
2023/08/26 01:57:15;;;;;;;19.27;8.93;;;;;;;;;;4981135;28;20022;-76
2023/08/26 01:59:40;;;;;;;23.13;7.55;;;;;;;14.90;63.03;100697.50;4984539;28;20041;-75
2023/08/26 02:02:06;;;;;;;26.15;8.38;;;;;;;15.00;62.72;100693.38;4983231;28;20041;-76
2023/08/26 02:04:32;;;;;;;21.73;8.13;;;;;;;14.91;62.49;100684.28;4981842;28;20073;-76
2023/08/26 02:06:57;;;;;;;20.85;7.35;;;;;;;14.77;63.26;100700.06;4998224;28;20033;-77
2023/08/26 02:09:23;;;;;;;28.75;8.63;;;;;;;14.84;62.95;100690.03;4994891;28;20034;-75
2023/08/26 02:11:48;;;;;;;18.35;7.95;;;;;;;14.70;63.28;100690.81;4982453;28;20026;-75
2023/08/26 02:14:14;;;;;;;15.98;7.15;;;;;;;14.33;64.22;100683.31;4984344;28;20045;-76
2023/08/26 02:16:40;;;;;;;13.82;7.15;;;;;;;14.35;63.74;100685.88;4984633;28;20145;-76
2023/08/26 02:19:05;;;;;;;17.25;8.27;;;;;;;14.60;63.16;100693.19;4977366;28;20065;-74
2023/08/26 02:21:31;;;;;;;15.60;8.00;;;;;;;14.56;63.04;100689.03;4979424;28;20038;-75
2023/08/26 02:23:56;;;;;;;21.20;8.98;;;;;;;14.62;63.07;100693.94;4978565;28;20158;-77
2023/08/26 02:26:22;;;;;;;15.68;8.25;;;;;;;14.38;63.56;100687.47;4983513;28;20037;-77
2023/08/26 02:28:48;;;;;;;18.55;9.90;;;;;;;14.27;63.80;100693.34;4994521;28;20050;-76
2023/08/26 02:31:13;;;;;;;19.27;10.13;;;;;;;14.56;63.10;100681.16;4983465;28;20061;-78
2023/08/26 02:33:39;;;;;;;20.25;10.68;;;;;;;14.07;64.24;100687.47;4979934;28;20042;-75
2023/08/26 02:36:04;;;;;;;22.40;10.88;;;;;;;14.34;63.62;100690.28;4985709;28;20040;-77
2023/08/26 02:38:31;;;;;;;21.45;11.50;;;;;;;14.56;62.57;100689.03;4983598;28;20157;-77
2023/08/26 02:40:57;;;;;;;18.17;10.10;;;;;;;14.25;63.35;100696.06;4965247;28;20442;-76
2023/08/26 02:43:22;;;;;;;19.63;11.57;;;;;;;14.65;62.24;100693.75;4980457;28;20038;-76
2023/08/26 02:45:55;;;;;;;18.50;11.38;;;;;;;14.34;63.07;100695.56;4994430;28;20542;-76
2023/08/26 02:48:25;;;;;;;22.98;13.40;;;;;;;14.29;63.37;100689.69;4983812;28;20045;-78
2023/08/26 02:50:59;;;;;;;23.20;13.07;;;;;;;14.31;63.04;100687.00;4983102;28;20026;-77
2023/08/26 02:53:26;;;;;;;21.58;12.95;;;;;;;14.63;62.37;100685.09;4982740;28;20041;-76
2023/08/26 02:55:53;;;;;;;18.48;12.00;;;;;;;14.70;62.16;100690.81;4980679;28;20034;-76
2023/08/26 02:58:19;;;;;;;16.33;10.70;;;;;;;14.67;62.01;100681.34;4965291;28;20144;-76
2023/08/26 03:00:46;;;;;;;20.25;13.00;;;;;;;14.48;62.64;100683.41;4996064;28;20108;-76
2023/08/26 03:03:12;;;;;;;21.83;13.43;;;;;;;14.41;62.69;100679.44;4980256;28;20053;-77
2023/08/26 03:05:38;;;;;;;20.10;11.52;;;;;;;14.53;61.98;100689.22;4979160;28;20037;-78
2023/08/26 03:08:03;;;;;;;19.67;11.57;;;;;;;14.53;62.13;100689.22;4964674;28;20619;-77
2023/08/26 03:10:31;;;;;;;20.35;12.63;;;;;;;14.28;62.80;100690.66;4983652;28;20034;-77
2023/08/26 03:12:56;;;;;;;19.85;13.18;;;;;;;14.34;62.51;100685.03;4980417;28;20044;-77
2023/08/26 03:15:22;;;;;;;22.75;14.57;;;;;;;14.04;63.45;100689.44;4977941;28;20030;-76
2023/08/26 03:17:47;;;;;;;20.45;12.55;;;;;;;13.83;64.10;100695.00;4980184;28;20045;-75
2023/08/26 03:20:13;;;;;;;24.58;13.10;;;;;;;13.75;64.19;100691.94;4995035;28;20499;-76
2023/08/26 03:22:39;;;;;;;22.42;12.73;;;;;;;14.10;62.71;100692.56;4983590;28;20060;-76
2023/08/26 03:25:05;;;;;;;17.23;11.68;;;;;;;13.78;63.79;100685.66;5002567;28;20094;-76
2023/08/26 03:27:31;;;;;;;21.83;11.35;;;;;;;14.04;63.05;100681.56;4978893;28;20040;-77
2023/08/26 03:29:56;;;;;;;19.42;13.23;;;;;;;13.91;63.36;100686.66;4981251;28;20026;-78
2023/08/26 03:32:24;;;;;;;15.85;11.18;;;;;;;14.11;62.74;100693.41;4969077;28;20120;-77
2023/08/26 03:34:50;;;;;;;13.98;9.57;;;;;;;14.04;62.71;100686.81;4983907;28;20033;-76
2023/08/26 03:37:15;;;;;;;19.60;11.65;;;;;;;14.04;62.66;100684.19;4995731;28;20033;-75
2023/08/26 03:39:41;;;;;;;16.23;10.18;;;;;;;14.29;62.11;100680.97;4985877;28;20045;-75
2023/08/26 03:42:06;;;;;;;13.15;8.75;;;;;;;14.30;61.84;100686.16;4978458;28;20040;-74
2023/08/26 03:44:32;;;;;;;15.90;8.63;;;;;;;14.24;61.92;100681.25;4980612;28;20045;-76
2023/08/26 03:46:57;;;;;;;11.90;8.25;;;;;;;14.00;62.55;100686.13;4980575;28;20532;-75
2023/08/26 03:49:23;;;;;;;14.57;8.93;;;;;;;14.18;62.08;100686.84;4959355;28;20124;-76
2023/08/26 03:51:48;;;;;;;9.68;7.43;;;;;;;14.19;61.87;100685.06;4986160;28;20041;-75
2023/08/26 03:54:14;;;;;;;12.27;7.57;;;;;;;13.92;62.24;100691.84;4978690;28;20065;-76
2023/08/26 03:56:40;;;;;;;14.65;6.85;;;;;;;14.23;61.80;100687.44;4987378;28;20127;-76
2023/08/26 03:59:06;;;;;;;12.35;7.80;;;;;;;14.24;61.33;100686.50;4994086;28;20134;-77
2023/08/26 04:01:32;;;;;;;10.13;7.28;;;;;;;14.20;61.45;100695.50;4998414;28;20074;-77
2023/08/26 04:03:57;;;;;;;13.35;7.28;;;;;;;14.18;61.64;100693.91;4979198;28;20041;-76
2023/08/26 04:06:24;;;;;;;13.43;7.13;;;;;;;14.06;61.68;100698.09;4976922;28;20653;-75
2023/08/26 04:08:50;;;;;;;13.85;7.25;;;;;;;13.94;62.00;100703.13;4977790;28;20053;-77
2023/08/26 04:11:17;;;;;;;14.43;8.27;;;;;;;13.87;62.08;100700.91;4980679;28;20040;-78
2023/08/26 04:13:45;;;;;;;14.23;6.60;;;;;;;13.91;61.94;100705.91;4978169;28;20072;-77
2023/08/26 04:16:11;;;;;;;12.18;7.28;;;;;;;13.98;61.55;100705.56;4994379;28;20841;-77
2023/08/26 04:18:38;;;;;;;11.35;6.72;;;;;;;13.60;62.60;100713.81;4995099;28;20053;-77
2023/08/26 04:21:04;;;;;;;9.32;6.35;;;;;;;13.80;61.81;100716.16;4995859;28;20036;-77
2023/08/26 04:23:30;;;;;;;9.73;5.57;;;;;;;13.96;61.41;100715.31;4980780;28;20135;-77
2023/08/26 04:26:08;;;;;;;14.48;6.18;;;;;;;13.97;61.37;100717.00;4984801;28;20049;-76
2023/08/26 04:28:34;;;;;;;8.60;5.85;;;;;;;13.96;61.06;100715.31;4957928;28;20049;-76
2023/08/26 04:31:00;;;;;;;10.60;7.22;;;;;;;13.86;61.41;100722.88;4960171;28;20029;-77
2023/08/26 04:33:26;;;;;;;8.07;5.82;;;;;;;13.90;61.03;100717.34;4973986;28;20034;-77
2023/08/26 04:35:51;;;;;;;8.77;5.57;;;;;;;13.85;61.24;100723.78;4993355;28;20034;-76
2023/08/26 04:38:17;;;;;;;12.43;6.60;;;;;;;13.72;61.54;100728.91;4980278;28;20563;-76
2023/08/26 04:40:43;;;;;;;11.75;5.78;;;;;;;13.76;61.35;100730.41;4980380;28;20036;-76
2023/08/26 04:43:10;;;;;;;6.43;4.72;;;;;;;13.79;61.15;100724.16;4977614;28;20041;-76
2023/08/26 04:45:40;;;;;;;11.00;5.30;;;;;;;13.74;61.12;100732.25;4973884;28;20030;-76
2023/08/26 04:48:07;;;;;;;9.07;5.15;;;;;;;13.72;61.06;100734.16;4980846;28;20076;-76
2023/08/26 04:50:34;;;;;;;9.15;5.35;;;;;;;13.58;61.42;100731.44;4979654;28;20514;-76
2023/08/26 04:53:00;;;;;;;8.65;5.53;;;;;;;13.57;61.11;100730.59;4975274;28;20177;-76
2023/08/26 04:55:26;;;;;;;5.47;3.92;;;;;;;13.28;62.11;100740.00;4978097;28;20836;-76
2023/08/26 04:57:53;;;;;;;6.38;3.80;;;;;;;13.50;61.03;100745.78;4991050;28;20041;-76
2023/08/26 05:00:18;;;;;;;5.70;4.45;;;;;;;13.50;61.11;100747.59;4981767;28;20030;-78
2023/08/26 05:02:44;;;;;;;12.57;4.82;;;;;;;13.17;61.28;100751.06;4977403;28;20710;-77
2023/08/26 05:05:10;;;;;;;5.78;4.85;;;;;;;13.20;61.43;100753.53;4979636;28;20073;-76
2023/08/26 05:07:35;;;;;;;11.23;4.13;;;;;;;13.39;60.75;100756.03;4979035;28;20046;-75
2023/08/26 05:10:05;;;;;;;12.75;4.63;;;;;;;13.28;61.07;100751.34;4975145;28;20034;-76
2023/08/26 05:12:31;;;;;;;6.90;4.55;;;;;;;13.18;61.63;100752.75;4980713;28;20065;-75
2023/08/26 05:14:57;;;;;;;6.50;3.88;;;;;;;13.09;61.72;100762.00;4977387;28;20225;-77
2023/08/26 05:17:22;;;;;;;14.82;4.00;;;;;;;12.65;62.38;100762.47;4978233;28;20824;-76
2023/08/26 05:19:48;;;;;;;13.75;5.75;;;;;;;12.92;61.80;100761.16;4978078;28;20041;-76
2023/08/26 05:22:14;;;;;;;9.15;4.35;;;;;;;13.10;61.21;100762.81;4977171;28;20116;-77
2023/08/26 05:24:40;;;;;;;5.72;3.22;;;;;;;13.93;61.44;100756.56;4978135;28;20026;-75
2023/08/26 05:27:06;;;;;;;7.40;4.10;;;;;;;15.57;55.87;100755.69;4980135;28;20088;-75
2023/08/26 05:29:31;;;;;;;10.70;3.20;;;;;;;16.42;53.64;100759.88;4977953;28;20057;-76
2023/08/26 05:31:57;;;;;;;6.93;3.08;;;;;;;17.12;51.37;100758.69;4976997;28;20814;-78
2023/08/26 05:34:23;;;;;;;6.95;2.67;;;;;;;18.09;49.76;100756.22;4978302;28;20054;-76
2023/08/26 05:36:49;;;;;;;3.80;2.70;;;;;;;18.41;47.41;100760.00;4983174;28;20032;-76
2023/08/26 05:39:15;;;;;;;3.58;2.15;;;;;;;19.26;47.38;100751.72;4991255;28;20132;-76
2023/08/26 05:41:40;;;;;;;9.13;2.65;;;;;;;20.25;44.26;100759.75;4980100;28;20030;-76
2023/08/26 05:44:06;;;;;;;6.97;1.98;;;;;;;20.56;41.16;100763.34;4975512;28;20052;-75
2023/08/26 05:46:32;;;;;;;3.85;1.35;;;;;;;20.07;43.00;100760.25;4963616;28;20022;-77
2023/08/26 05:48:58;;;;;;;2.78;1.80;;;;;;;20.66;39.79;100769.56;4975117;28;20129;-77
2023/08/26 05:51:23;;;;;;;3.13;1.65;;;;;;;21.26;38.65;100764.41;4985408;28;21037;-78
2023/08/26 05:53:49;;;;;;;4.65;1.50;;;;;;;20.57;39.91;100774.78;4980549;28;20129;-76
2023/08/26 05:56:14;;;;;;;3.05;1.38;;;;;;;20.92;41.34;100775.31;4954581;28;20034;-77
2023/08/26 05:58:41;;;;;;;1.98;1.05;;;;;;;21.71;38.29;100765.84;4967709;28;20045;-75
2023/08/26 06:01:06;;;;;;;4.53;1.05;;;;;;;22.50;37.36;100773.75;4963342;28;20037;-76
2023/08/26 06:03:32;;;;;;;2.75;0.90;;;;;;;22.98;36.17;100767.47;4974088;28;20041;-76
2023/08/26 06:05:57;;;;;;;4.15;0.88;;;;;;;21.93;37.80;100780.72;4960652;28;20041;-76
2023/08/26 06:08:23;;;;;;;1.80;0.75;;;;;;;22.69;35.56;100777.38;4960818;28;20149;-75
2023/08/26 06:10:54;;;;;;;2.15;0.50;;;;;;;22.71;35.87;100786.09;4977560;28;20162;-76
2023/08/26 06:13:22;;;;;;;3.08;1.05;;;;;;;21.61;37.47;100786.28;4984855;28;20078;-75
2023/08/26 06:15:58;;;;;;;2.20;0.52;;;;;;;21.64;36.96;100784.16;4990309;28;20146;-75
2023/08/26 06:18:25;;;;;;;1.88;0.45;;;;;;;22.84;35.94;100791.09;4994608;28;20048;-77
2023/08/26 06:20:51;;;;;;;1.67;0.38;;;;;;;24.35;35.03;100785.41;4994566;28;20061;-76
2023/08/26 06:23:20;;;;;;;1.67;0.50;;;;;;;25.08;32.60;100789.63;4982861;28;20041;-77
2023/08/26 06:25:56;;;;;;;2.83;0.70;;;;;;;24.53;31.88;100790.75;4994053;28;20045;-77
2023/08/26 06:28:24;;;;;;;1.17;0.45;;;;;;;24.02;32.57;100787.78;4997031;28;20049;-73
2023/08/26 06:30:50;;;;;;;3.50;0.52;;;;;;;24.92;32.24;100787.66;4978476;28;20113;-75
2023/08/26 06:33:16;;;;;;;3.83;0.50;;;;;;;25.41;31.16;100786.09;4995940;28;20097;-71
2023/08/26 06:35:47;;;;;;;2.00;0.52;;;;;;;25.23;31.75;100796.06;5001429;28;20037;-73
2023/08/26 06:38:13;;;;;;;3.22;0.80;;;;;;;24.22;31.43;100786.63;5006572;28;20046;-76
2023/08/26 06:40:39;;;;;;;1.67;0.30;;;;;;;23.77;32.83;100798.16;4965135;28;20041;-76
2023/08/26 06:43:05;;;;;;;5.72;0.40;;;;;;;23.49;34.50;100791.16;4981757;28;20049;-77
2023/08/26 06:45:34;;;;;;;0.82;0.30;;;;;;;25.10;30.21;100792.97;4990433;28;20076;-75
2023/08/26 06:47:59;;;;;;;5.15;0.65;;;;;;;25.85;30.32;100793.97;4980009;28;20471;-78
2023/08/26 06:50:25;;;;;;;2.55;0.28;;;;;;;24.78;30.65;100797.13;4981245;28;20034;-74
2023/08/26 06:52:51;;;;;;;4.30;0.20;;;;;;;26.03;31.19;100801.03;4981561;28;20542;-78
2023/08/26 06:55:18;;;;;;;0.65;0.22;;;;;;;26.82;27.49;100796.84;4979154;28;20153;-75
2023/08/26 06:57:44;;;;;;;5.80;0.30;;;;;;;24.87;30.83;100803.34;4974074;28;20046;-76
2023/08/26 07:00:12;;;;;;;0.90;0.20;;;;;;;25.72;30.06;100808.81;4999862;28;20064;-73
2023/08/26 07:02:37;;;;;;;2.60;0.73;;;;;;;23.72;30.86;100802.25;4992552;28;20044;-77
2023/08/26 07:05:04;;;;;;;1.75;0.10;;;;;;;23.87;32.47;100814.16;4983853;28;20487;-75
2023/08/26 07:07:30;;;;;;;4.32;0.43;;;;;;;25.27;30.58;100810.78;4993568;28;20034;-77
2023/08/26 07:09:55;;;;;;;2.83;0.20;;;;;;;24.92;31.05;100817.91;4982323;28;20045;-76
2023/08/26 07:12:21;;;;;;;2.08;0.20;;;;;;;26.12;28.43;100818.81;4977680;28;20042;-74
2023/08/26 07:14:46;;;;;;;2.78;0.20;;;;;;;26.13;28.72;100817.78;4982436;28;20648;-73
2023/08/26 07:17:18;;;;;;;0.28;0.10;;;;;;;25.94;29.04;100820.75;4996804;28;20029;-76
2023/08/26 07:19:43;;;;;;;;;;;;;;;26.41;27.55;100820.16;4993072;28;20049;-75
2023/08/26 07:22:09;;;;;;;1.50;0.10;;;;;;;26.45;29.10;100821.50;4982947;28;19913;-76
2023/08/26 07:24:34;;;;;;;2.95;0.20;;;;;;;27.83;26.77;100821.34;4980499;28;20053;-76
2023/08/26 07:27:00;;;;;;;1.38;0.10;;;;;;;27.22;25.22;100824.59;4984648;28;20588;-75
2023/08/26 07:29:25;;;;;;;0.98;0.20;;;;;;;26.01;27.39;100832.47;4979211;28;20096;-75
2023/08/26 07:31:51;;;;;;;1.70;0.43;;;;;;;26.49;28.65;100822.81;4966578;28;20042;-74
2023/08/26 07:34:17;;;;;;;3.15;0.10;;;;;;;26.47;27.04;100830.22;4978536;28;20041;-75
2023/08/26 07:36:45;;;;;;;1.95;0.20;;;;;;;24.87;29.47;100828.25;4978802;28;20037;-74
2023/08/26 07:39:11;;;;;;;0.43;0.10;;;;;;;24.70;29.65;100829.94;4979273;28;20057;-74
2023/08/26 07:41:36;;;;;;;0.85;0.10;;;;;;;23.85;30.86;100829.47;4989045;28;20217;-73
2023/08/26 07:44:03;;;;;;;1.15;0.10;;;;;;;24.99;29.70;100836.88;4979142;28;20104;-76
2023/08/26 07:46:28;;;;;;;1.85;0.10;;;;;;;25.03;28.81;100836.38;4978727;28;20077;-75
2023/08/26 07:48:54;;;;;;;1.25;0.30;;;;;;;23.96;29.92;100831.91;4992652;28;20042;-74
2023/08/26 07:51:19;;;;;;;1.85;0.30;;;;;;;23.39;31.03;100845.41;4972622;28;20037;-74
2023/08/26 07:53:44;;;;;;;1.52;0.10;;;;;;;24.38;30.00;100835.84;4975193;28;20042;-75
2023/08/26 07:56:10;;;;;;;3.53;0.10;;;;;;;24.55;29.17;100842.19;4983607;28;20036;-74
2023/08/26 07:58:35;;;;;;;1.23;0.10;;;;;;;23.13;31.80;100842.50;4975455;28;20053;-75
2023/08/26 08:01:01;;;;;;;0.80;0.10;;;;;;;24.61;29.11;100846.91;4994096;28;20092;-74
2023/08/26 08:03:27;;;;;;;1.63;0.10;;;;;;;25.07;29.42;100844.13;4994423;28;20566;-77
2023/08/26 08:05:52;;;;;;;1.05;0.13;;;;;;;25.20;29.26;100848.03;4998512;28;20049;-77
2023/08/26 08:08:18;;;;;;;1.73;0.25;;;;;;;24.45;30.82;100844.94;4961741;28;20048;-80
2023/08/26 08:10:44;;;;;;;0.68;0.10;;;;;;;23.46;30.95;100850.16;4979530;28;20034;-77
2023/08/26 08:13:09;;;;;;;0.60;0.10;;;;;;;21.88;32.40;100849.47;4979116;28;20057;-78
2023/08/26 08:15:35;;;;;;;3.15;0.13;;;;;;;21.40;33.89;100850.09;4978420;28;20040;-77
2023/08/26 08:18:02;;;;;;;0.57;0.10;;;;;;;19.90;36.96;100845.66;4978638;28;20073;-77
2023/08/26 08:20:30;;;;;;;1.27;0.10;;;;;;;20.67;37.73;100850.06;4982525;28;20029;-76
2023/08/26 08:22:56;;;;;;;1.88;0.22;;;;;;;20.36;36.58;100855.25;4977114;28;20046;-77
2023/08/26 08:25:22;;;;;;;3.22;0.20;;;;;;;21.07;35.19;100852.03;4977635;28;20045;-76
2023/08/26 08:27:48;;;;;;;2.03;0.20;;;;;;;20.70;37.00;100857.75;4962050;28;20042;-74
2023/08/26 08:30:14;;;;;;;1.95;0.10;;;;;;;21.07;35.47;100860.00;4975403;28;20045;-77
2023/08/26 08:32:40;;;;;;;0.60;0.10;;;;;;;20.44;36.86;100862.56;4982401;28;20197;-77
2023/08/26 08:35:07;;;;;;;2.08;0.20;;;;;;;20.44;36.75;100859.91;4978650;28;20042;-75
2023/08/26 08:37:33;;;;;;;3.33;0.30;;;;;;;20.31;38.00;100863.59;4960596;28;20113;-77
2023/08/26 08:39:59;;;;;;;4.10;0.22;;;;;;;20.50;37.75;100859.41;4965166;28;20042;-76
2023/08/26 08:42:31;;;;;;;3.75;0.77;;;;;;;19.13;41.21;100864.91;4974352;28;20121;-74
2023/08/26 08:44:57;;;;;;;4.30;1.02;;;;;;;19.44;39.83;100867.84;4977950;28;20037;-76
2023/08/26 08:47:23;;;;;;;3.58;0.50;;;;;;;20.06;38.17;100866.50;4980483;28;20061;-74
2023/08/26 08:49:49;;;;;;;3.30;0.80;;;;;;;21.59;35.49;100875.97;4979369;28;20108;-76
2023/08/26 08:52:16;;;;;;;1.80;0.50;;;;;;;21.53;35.28;100875.53;4975623;28;20037;-75
2023/08/26 08:54:44;;;;;;;0.73;0.50;;;;;;;20.71;37.34;100881.53;4958435;28;20120;-77
2023/08/26 08:57:13;;;;;;;3.25;0.65;;;;;;;19.84;38.64;100880.66;4978959;28;20041;-80
2023/08/26 08:59:40;;;;;;;4.43;1.33;;;;;;;20.79;37.60;100878.22;4967983;28;20809;-76
2023/08/26 09:02:06;;;;;;;2.13;0.63;;;;;;;20.79;36.30;100875.56;4979936;28;20701;-76
2023/08/26 09:04:32;;;;;;;4.95;1.45;;;;;;;22.14;34.31;100881.78;4977499;28;20041;-76
2023/08/26 09:06:57;;;;;;;2.60;0.65;;;;;;;22.31;35.52;100880.25;4979050;28;20037;-76
2023/08/26 09:09:23;;;;;;;3.00;0.93;;;;;;;19.68;39.47;100876.56;4977171;28;20112;-76
2023/08/26 09:11:50;;;;;;;5.88;0.68;;;;;;;20.45;38.93;100886.34;4975071;28;20036;-75
2023/08/26 09:14:16;;;;;;;1.17;0.57;;;;;;;21.39;36.86;100877.66;4975387;28;20038;-76
2023/08/26 09:16:42;;;;;;;2.70;0.63;;;;;;;22.21;35.17;100876.75;4979473;28;20400;-74
2023/08/26 09:19:10;;;;;;;1.85;0.70;;;;;;;20.40;37.08;100882.41;4962044;28;20600;-77
2023/08/26 09:21:46;;;;;;;5.18;0.95;;;;;;;20.76;36.83;100878.50;4970673;28;20037;-74
2023/08/26 09:24:15;;;;;;;1.23;0.43;;;;;;;20.43;37.09;100880.31;4992425;28;20041;-75
2023/08/26 09:26:41;;;;;;;2.70;0.30;;;;;;;21.12;35.79;100879.91;4977532;28;20038;-74
2023/08/26 09:29:20;;;;;;;3.95;0.50;;;;;;;20.79;37.54;100880.88;4979086;28;20052;-76
2023/08/26 09:31:51;;;;;;;3.47;1.05;;;;;;;20.77;35.43;100882.81;4959691;28;20034;-77
2023/08/26 09:34:31;;;;;;;0.83;0.30;;;;;;;21.66;34.25;100874.47;4957656;28;20123;-77
2023/08/26 09:36:56;;;;;;;3.13;0.73;;;;;;;21.40;33.85;100884.66;4989847;28;20768;-75
2023/08/26 09:39:22;;;;;;;2.65;0.60;;;;;;;20.56;35.09;100885.47;4974607;28;20041;-74
2023/08/26 09:41:48;;;;;;;2.88;0.70;;;;;;;19.76;36.65;100889.22;4975359;28;20472;-74
2023/08/26 09:44:16;;;;;;;2.72;0.80;;;;;;;19.36;38.49;100897.59;4991085;28;20046;-74
2023/08/26 09:46:43;;;;;;;1.60;0.50;;;;;;;19.86;38.00;100892.84;4973276;28;20053;-76
2023/08/26 09:49:13;;;;;;;2.08;0.93;;;;;;;19.91;38.48;100905.72;4975150;28;20046;-75
2023/08/26 09:51:45;;;;;;;4.60;1.05;;;;;;;18.68;39.85;100905.31;4957722;28;20044;-74
2023/08/26 09:54:14;;;;;;;3.83;1.00;;;;;;;18.99;39.74;100900.41;4978412;28;20706;-74
2023/08/26 09:56:44;;;;;;;3.10;0.90;;;;;;;18.13;42.08;100903.16;4978400;28;20029;-74
2023/08/26 09:59:09;;;;;;;2.22;0.80;;;;;;;19.18;39.22;100905.13;4982690;28;20066;-75
2023/08/26 10:01:36;;;;;;;2.38;0.50;;;;;;;19.60;38.19;100902.84;4976113;28;20099;-75
2023/08/26 10:04:09;;;;;;;2.15;0.52;;;;;;;19.77;36.94;100903.31;4978713;28;20048;-76
2023/08/26 10:06:52;;;;;;;4.22;0.85;;;;;;;19.90;37.92;100901.38;4973682;28;20045;-76
2023/08/26 10:09:39;;;;;;;4.15;1.38;;;;;;;20.31;35.56;100913.19;4998450;28;20104;-74
2023/08/26 10:12:10;;;;;;;4.03;1.17;;;;;;;19.92;38.13;100910.06;4996951;28;20045;-75
2023/08/26 10:14:38;;;;;;;4.97;2.38;;;;;;;19.35;39.02;100913.63;4977148;28;20049;-75
2023/08/26 10:17:07;;;;;;;2.03;1.50;;;;;;;19.62;38.48;100916.81;4982845;28;20092;-74
2023/08/26 10:19:34;;;;;;;4.43;2.25;;;;;;;19.68;37.66;100912.81;4960922;28;20249;-73
2023/08/26 10:22:01;;;;;;;3.60;1.75;;;;;;;19.70;38.09;100913.56;4964246;28;20061;-74
2023/08/26 10:24:28;;;;;;;4.13;1.90;;;;;;;19.81;38.76;100918.84;4970630;28;20131;-74
2023/08/26 10:26:54;;;;;;;3.25;2.03;;;;;;;20.06;38.17;100916.91;4995173;28;20208;-75
2023/08/26 10:29:20;;;;;;;4.20;2.67;;;;;;;19.21;40.19;100926.13;4991245;28;20045;-73
2023/08/26 10:31:46;;;;;;;2.60;1.85;;;;;;;19.30;40.51;100919.25;4978694;28;20558;-73
2023/08/26 10:34:15;;;;;;;6.53;3.33;;;;;;;18.58;41.29;100925.47;4979497;28;20042;-74
2023/08/26 10:36:45;;;;;;;3.15;2.75;;;;;;;18.62;41.46;100934.88;4990815;28;20037;-75
2023/08/26 10:39:16;;;;;;;3.13;2.08;;;;;;;17.86;43.57;100925.31;4973062;28;20046;-73
2023/08/26 10:42:18;;;;;;;4.82;3.05;;;;;;;18.50;42.87;100926.97;4994605;28;20034;-74
2023/08/26 10:45:11;;;;;;;4.72;2.80;;;;;;;18.98;41.60;100927.00;4960838;28;20077;-74
2023/08/26 10:47:41;;;;;;;4.38;3.30;;;;;;;19.61;41.17;100933.66;4988956;28;20053;-74
2023/08/26 10:50:19;;;;;;;7.93;4.45;;;;;;;20.89;37.24;100919.03;4960863;28;20045;-75
2023/08/26 10:52:49;;;;;;;6.95;4.30;;;;;;;21.36;37.59;100919.50;4976254;28;20038;-73
2023/08/26 10:55:19;;;;;;;6.80;4.60;;;;;;;22.38;36.65;100924.84;4980281;28;20671;-74
2023/08/26 10:58:06;;;;;;;6.65;5.88;;;;;;;21.41;35.54;100920.91;4976896;28;20038;-74
2023/08/26 11:00:32;;;;;;;12.00;6.32;;;;;;;21.15;36.80;100918.66;4975605;28;20483;-75
2023/08/26 11:02:59;;;;;;;13.15;5.40;;;;;;;22.18;35.85;100921.31;4979716;28;20042;-74
2023/08/26 11:05:25;;;;;;;11.35;6.97;;;;;;;21.04;37.98;100918.72;4981174;28;20042;-76
2023/08/26 11:07:51;;;;;;;6.88;6.18;;;;;;;21.82;36.11;100919.19;4958209;28;20047;-76
2023/08/26 11:10:27;;;;;;;12.27;6.70;;;;;;;22.59;34.46;100921.22;4981277;28;20465;-74
2023/08/26 11:12:53;;;;;;;8.77;6.28;;;;;;;21.84;35.58;100922.53;4976124;28;20336;-75
2023/08/26 11:15:19;;;;;;;9.10;5.78;;;;;;;22.87;33.88;100919.56;4981076;28;20041;-75
2023/08/26 11:17:45;;;;;;;9.82;4.72;;;;;;;22.95;33.80;100925.03;4990322;28;20149;-76
2023/08/26 11:20:11;;;;;;;8.38;5.07;;;;;;;22.18;32.89;100917.78;4996442;28;20121;-75
2023/08/26 11:22:38;;;;;;;6.63;5.10;;;;;;;20.02;36.60;100929.59;4976753;28;20053;-75